sensor_id;sensor_type;location;lat;lon;timestamp;P1;durP1;ratioP1;P2;durP2;ratioP2
9940;SDS011;5009;50.656;7.188;2023-01-28T05:01:49;9.27;;;8.10;;
9940;SDS011;5009;50.656;7.188;2023-01-28T05:04:15;8.00;;;7.20;;
9940;SDS011;5009;50.656;7.188;2023-01-28T05:06:41;11.33;;;8.33;;
9940;SDS011;5009;50.656;7.188;2023-01-28T05:09:06;8.80;;;7.90;;
9940;SDS011;5009;50.656;7.188;2023-01-28T05:11:32;9.57;;;8.57;;
9940;SDS011;5009;50.656;7.188;2023-01-28T05:13:58;10.70;;;7.83;;
9940;SDS011;5009;50.656;7.188;2023-01-28T05:16:23;11.17;;;9.43;;
9940;SDS011;5009;50.656;7.188;2023-01-28T05:18:49;9.37;;;8.47;;
9940;SDS011;5009;50.656;7.188;2023-01-28T05:21:15;10.07;;;8.23;;
9940;SDS011;5009;50.656;7.188;2023-01-28T05:23:41;9.60;;;8.70;;
9940;SDS011;5009;50.656;7.188;2023-01-28T05:26:07;10.13;;;9.13;;
9940;SDS011;5009;50.656;7.188;2023-01-28T05:28:33;9.97;;;8.47;;
9940;SDS011;5009;50.656;7.188;2023-01-28T05:31:05;8.70;;;7.90;;
9940;SDS011;5009;50.656;7.188;2023-01-28T05:33:31;9.43;;;8.53;;
9940;SDS011;5009;50.656;7.188;2023-01-28T05:35:57;8.70;;;7.90;;
9940;SDS011;5009;50.656;7.188;2023-01-28T05:38:23;9.30;;;8.40;;
9940;SDS011;5009;50.656;7.188;2023-01-28T05:40:49;9.93;;;8.93;;
9940;SDS011;5009;50.656;7.188;2023-01-28T05:43:14;9.77;;;8.77;;
9940;SDS011;5009;50.656;7.188;2023-01-28T05:45:40;9.80;;;8.80;;
9940;SDS011;5009;50.656;7.188;2023-01-28T05:48:06;9.83;;;8.20;;
9940;SDS011;5009;50.656;7.188;2023-01-28T05:52:40;10.33;;;9.13;;
9940;SDS011;5009;50.656;7.188;2023-01-28T05:55:06;10.03;;;8.90;;
9940;SDS011;5009;50.656;7.188;2023-01-28T05:57:32;10.70;;;8.67;;
9940;SDS011;5009;50.656;7.188;2023-01-28T05:59:57;11.23;;;10.03;;
9940;SDS011;5009;50.656;7.188;2023-01-28T06:02:23;9.97;;;8.97;;
9940;SDS011;5009;50.656;7.188;2023-01-28T06:04:49;9.93;;;8.40;;
9940;SDS011;5009;50.656;7.188;2023-01-28T06:07:14;11.53;;;9.20;;
9940;SDS011;5009;50.656;7.188;2023-01-28T06:09:44;9.43;;;8.47;;
9940;SDS011;5009;50.656;7.188;2023-01-28T06:12:10;15.00;;;8.97;;
9940;SDS011;5009;50.656;7.188;2023-01-28T06:14:35;11.03;;;8.57;;
9940;SDS011;5009;50.656;7.188;2023-01-28T06:17:01;9.53;;;8.53;;
9940;SDS011;5009;50.656;7.188;2023-01-28T06:19:26;9.80;;;8.83;;
9940;SDS011;5009;50.656;7.188;2023-01-28T06:21:52;10.20;;;9.20;;
9940;SDS011;5009;50.656;7.188;2023-01-28T06:24:18;12.37;;;8.80;;
9940;SDS011;5009;50.656;7.188;2023-01-28T06:26:43;9.53;;;8.63;;
9940;SDS011;5009;50.656;7.188;2023-01-28T06:29:09;9.33;;;8.43;;
9940;SDS011;5009;50.656;7.188;2023-01-28T06:31:34;9.43;;;8.30;;
9940;SDS011;5009;50.656;7.188;2023-01-28T06:34:00;11.37;;;8.23;;
9940;SDS011;5009;50.656;7.188;2023-01-28T06:36:25;9.30;;;8.07;;
9940;SDS011;5009;50.656;7.188;2023-01-28T06:38:51;9.90;;;8.77;;
9940;SDS011;5009;50.656;7.188;2023-01-28T06:41:17;9.73;;;8.73;;
9940;SDS011;5009;50.656;7.188;2023-01-28T06:43:42;8.67;;;7.87;;
9940;SDS011;5009;50.656;7.188;2023-01-28T06:46:08;8.53;;;7.63;;
9940;SDS011;5009;50.656;7.188;2023-01-28T06:48:33;9.10;;;8.30;;
9940;SDS011;5009;50.656;7.188;2023-01-28T06:50:59;9.23;;;8.30;;
9940;SDS011;5009;50.656;7.188;2023-01-28T06:53:24;9.50;;;8.50;;
9940;SDS011;5009;50.656;7.188;2023-01-28T06:55:50;9.17;;;8.27;;
9940;SDS011;5009;50.656;7.188;2023-01-28T06:58:15;11.27;;;8.77;;
9940;SDS011;5009;50.656;7.188;2023-01-28T07:00:41;9.10;;;8.20;;
9940;SDS011;5009;50.656;7.188;2023-01-28T07:03:06;8.87;;;7.97;;
9940;SDS011;5009;50.656;7.188;2023-01-28T07:05:32;10.17;;;8.87;;
9940;SDS011;5009;50.656;7.188;2023-01-28T07:07:58;9.77;;;8.60;;
9940;SDS011;5009;50.656;7.188;2023-01-28T07:10:23;9.07;;;8.17;;
9940;SDS011;5009;50.656;7.188;2023-01-28T07:12:49;9.20;;;8.17;;
9940;SDS011;5009;50.656;7.188;2023-01-28T07:15:14;9.63;;;8.63;;
9940;SDS011;5009;50.656;7.188;2023-01-28T07:17:43;9.20;;;8.30;;
9940;SDS011;5009;50.656;7.188;2023-01-28T07:20:09;10.17;;;8.77;;
9940;SDS011;5009;50.656;7.188;2023-01-28T07:22:36;9.73;;;8.80;;
9940;SDS011;5009;50.656;7.188;2023-01-28T07:25:04;8.97;;;8.17;;
9940;SDS011;5009;50.656;7.188;2023-01-28T07:27:30;9.90;;;8.80;;
9940;SDS011;5009;50.656;7.188;2023-01-28T07:29:56;10.07;;;9.07;;
9940;SDS011;5009;50.656;7.188;2023-01-28T07:32:21;11.20;;;9.20;;
9940;SDS011;5009;50.656;7.188;2023-01-28T07:34:47;9.50;;;8.43;;
9940;SDS011;5009;50.656;7.188;2023-01-28T07:37:13;11.40;;;8.90;;
9940;SDS011;5009;50.656;7.188;2023-01-28T07:39:39;8.93;;;8.03;;
9940;SDS011;5009;50.656;7.188;2023-01-28T07:42:04;8.53;;;7.67;;
9940;SDS011;5009;50.656;7.188;2023-01-28T07:44:30;9.80;;;8.07;;
9940;SDS011;5009;50.656;7.188;2023-01-28T07:46:56;9.50;;;7.93;;
9940;SDS011;5009;50.656;7.188;2023-01-28T07:49:21;9.60;;;7.83;;
9940;SDS011;5009;50.656;7.188;2023-01-28T07:51:47;8.70;;;7.80;;
9940;SDS011;5009;50.656;7.188;2023-01-28T07:54:14;8.40;;;7.57;;
9940;SDS011;5009;50.656;7.188;2023-01-28T07:56:40;10.67;;;8.17;;
9940;SDS011;5009;50.656;7.188;2023-01-28T07:59:06;9.17;;;7.90;;
9940;SDS011;5009;50.656;7.188;2023-01-28T08:01:31;8.90;;;8.00;;
9940;SDS011;5009;50.656;7.188;2023-01-28T08:03:57;9.93;;;8.93;;
9940;SDS011;5009;50.656;7.188;2023-01-28T08:06:22;8.67;;;7.90;;
9940;SDS011;5009;50.656;7.188;2023-01-28T08:08:48;10.03;;;8.43;;
9940;SDS011;5009;50.656;7.188;2023-01-28T08:11:13;8.17;;;7.40;;
9940;SDS011;5009;50.656;7.188;2023-01-28T08:13:39;7.97;;;7.27;;
9940;SDS011;5009;50.656;7.188;2023-01-28T08:16:05;9.10;;;7.93;;
9940;SDS011;5009;50.656;7.188;2023-01-28T08:18:30;8.67;;;7.77;;
9940;SDS011;5009;50.656;7.188;2023-01-28T08:20:56;8.33;;;7.57;;
9940;SDS011;5009;50.656;7.188;2023-01-28T08:23:23;9.03;;;7.23;;
9940;SDS011;5009;50.656;7.188;2023-01-28T08:25:51;8.90;;;8.10;;
9940;SDS011;5009;50.656;7.188;2023-01-28T08:28:17;8.70;;;7.90;;
9940;SDS011;5009;50.656;7.188;2023-01-28T08:30:43;8.83;;;7.67;;
9940;SDS011;5009;50.656;7.188;2023-01-28T08:33:10;9.07;;;8.10;;
9940;SDS011;5009;50.656;7.188;2023-01-28T08:35:37;9.63;;;7.67;;
9940;SDS011;5009;50.656;7.188;2023-01-28T08:38:03;11.37;;;8.27;;
9940;SDS011;5009;50.656;7.188;2023-01-28T08:40:30;9.03;;;8.13;;
9940;SDS011;5009;50.656;7.188;2023-01-28T08:42:56;7.43;;;6.73;;
9940;SDS011;5009;50.656;7.188;2023-01-28T08:45:23;7.43;;;6.73;;
9940;SDS011;5009;50.656;7.188;2023-01-28T08:47:50;8.40;;;7.60;;
9940;SDS011;5009;50.656;7.188;2023-01-28T08:50:17;8.47;;;7.67;;
9940;SDS011;5009;50.656;7.188;2023-01-28T08:52:44;7.90;;;7.10;;
9940;SDS011;5009;50.656;7.188;2023-01-28T08:55:11;8.17;;;7.40;;
9940;SDS011;5009;50.656;7.188;2023-01-28T08:57:37;8.23;;;7.30;;
9940;SDS011;5009;50.656;7.188;2023-01-28T09:00:04;8.70;;;7.80;;
9940;SDS011;5009;50.656;7.188;2023-01-28T09:02:30;8.03;;;7.17;;
9940;SDS011;5009;50.656;7.188;2023-01-28T09:04:56;7.63;;;6.93;;
9940;SDS011;5009;50.656;7.188;2023-01-28T09:07:22;7.97;;;7.20;;
9940;SDS011;5009;50.656;7.188;2023-01-28T09:09:47;9.13;;;7.07;;
9940;SDS011;5009;50.656;7.188;2023-01-28T09:12:13;8.23;;;7.47;;
9940;SDS011;5009;50.656;7.188;2023-01-28T09:14:38;8.13;;;7.33;;
9940;SDS011;5009;50.656;7.188;2023-01-28T09:17:04;7.73;;;6.93;;
9940;SDS011;5009;50.656;7.188;2023-01-28T09:19:30;7.13;;;6.53;;
9940;SDS011;5009;50.656;7.188;2023-01-28T09:21:55;7.70;;;6.90;;
9940;SDS011;5009;50.656;7.188;2023-01-28T09:24:21;8.37;;;7.47;;
9940;SDS011;5009;50.656;7.188;2023-01-28T09:26:49;8.07;;;7.00;;
9940;SDS011;5009;50.656;7.188;2023-01-28T09:29:15;7.10;;;6.40;;
9940;SDS011;5009;50.656;7.188;2023-01-28T09:31:41;7.77;;;6.97;;
9940;SDS011;5009;50.656;7.188;2023-01-28T09:34:07;7.90;;;6.63;;
9940;SDS011;5009;50.656;7.188;2023-01-28T09:36:33;9.83;;;7.83;;
9940;SDS011;5009;50.656;7.188;2023-01-28T09:38:59;8.37;;;7.00;;
9940;SDS011;5009;50.656;7.188;2023-01-28T09:41:27;8.33;;;7.17;;
9940;SDS011;5009;50.656;7.188;2023-01-28T09:46:35;8.30;;;7.10;;
9940;SDS011;5009;50.656;7.188;2023-01-28T09:49:04;8.57;;;7.47;;
9940;SDS011;5009;50.656;7.188;2023-01-28T09:51:40;8.20;;;7.00;;
9940;SDS011;5009;50.656;7.188;2023-01-28T09:56:48;9.17;;;7.27;;
9940;SDS011;5009;50.656;7.188;2023-01-28T09:59:20;7.40;;;6.67;;
9940;SDS011;5009;50.656;7.188;2023-01-28T10:01:58;7.30;;;6.60;;
9940;SDS011;5009;50.656;7.188;2023-01-28T10:12:38;8.87;;;7.10;;
9940;SDS011;5009;50.656;7.188;2023-01-28T10:17:46;6.90;;;6.30;;
9940;SDS011;5009;50.656;7.188;2023-01-28T10:23:05;7.73;;;7.03;;
9940;SDS011;5009;50.656;7.188;2023-01-28T10:25:38;10.30;;;6.57;;
9940;SDS011;5009;50.656;7.188;2023-01-28T10:28:19;7.87;;;7.03;;
9940;SDS011;5009;50.656;7.188;2023-01-28T10:30:48;7.20;;;6.50;;
9940;SDS011;5009;50.656;7.188;2023-01-28T10:35:51;9.03;;;7.37;;
9940;SDS011;5009;50.656;7.188;2023-01-28T10:38:21;9.00;;;7.10;;
9940;SDS011;5009;50.656;7.188;2023-01-28T10:40:49;7.63;;;6.73;;
9940;SDS011;5009;50.656;7.188;2023-01-28T10:43:15;7.57;;;6.90;;
9940;SDS011;5009;50.656;7.188;2023-01-28T10:45:50;6.43;;;5.80;;
9940;SDS011;5009;50.656;7.188;2023-01-28T10:50:51;8.20;;;6.53;;
9940;SDS011;5009;50.656;7.188;2023-01-28T10:53:18;8.03;;;6.43;;
9940;SDS011;5009;50.656;7.188;2023-01-28T10:55:48;8.47;;;6.80;;
9940;SDS011;5009;50.656;7.188;2023-01-28T10:58:17;6.73;;;5.80;;
9940;SDS011;5009;50.656;7.188;2023-01-28T11:00:58;8.00;;;6.37;;
9940;SDS011;5009;50.656;7.188;2023-01-28T11:03:26;7.03;;;6.33;;
9940;SDS011;5009;50.656;7.188;2023-01-28T11:05:55;6.97;;;6.20;;
9940;SDS011;5009;50.656;7.188;2023-01-28T11:08:22;6.13;;;5.63;;
9940;SDS011;5009;50.656;7.188;2023-01-28T11:10:50;6.67;;;6.03;;
9940;SDS011;5009;50.656;7.188;2023-01-28T11:15:47;6.40;;;5.37;;
9940;SDS011;5009;50.656;7.188;2023-01-28T11:18:35;6.83;;;6.23;;
9940;SDS011;5009;50.656;7.188;2023-01-28T11:21:06;8.33;;;6.90;;
9940;SDS011;5009;50.656;7.188;2023-01-28T11:23:48;7.30;;;6.60;;
9940;SDS011;5009;50.656;7.188;2023-01-28T11:26:24;7.80;;;5.80;;
9940;SDS011;5009;50.656;7.188;2023-01-28T11:28:53;7.07;;;6.37;;
9940;SDS011;5009;50.656;7.188;2023-01-28T11:31:20;7.33;;;6.23;;
9940;SDS011;5009;50.656;7.188;2023-01-28T11:33:49;6.67;;;6.07;;
9940;SDS011;5009;50.656;7.188;2023-01-28T11:36:30;6.47;;;5.87;;
9940;SDS011;5009;50.656;7.188;2023-01-28T11:41:36;7.23;;;5.97;;
9940;SDS011;5009;50.656;7.188;2023-01-28T11:44:24;7.13;;;6.07;;
9940;SDS011;5009;50.656;7.188;2023-01-28T11:52:26;6.40;;;5.90;;
9940;SDS011;5009;50.656;7.188;2023-01-28T11:58:05;6.43;;;5.57;;
9940;SDS011;5009;50.656;7.188;2023-01-28T12:09:27;8.13;;;6.17;;
9940;SDS011;5009;50.656;7.188;2023-01-28T12:14:57;6.30;;;5.80;;
9940;SDS011;5009;50.656;7.188;2023-01-28T12:37:19;6.90;;;5.80;;
9940;SDS011;5009;50.656;7.188;2023-01-28T12:42:52;6.17;;;5.37;;
9940;SDS011;5009;50.656;7.188;2023-01-28T12:47:52;6.60;;;5.90;;
9940;SDS011;5009;50.656;7.188;2023-01-28T12:50:35;6.30;;;5.70;;
9940;SDS011;5009;50.656;7.188;2023-01-28T12:53:28;6.80;;;5.97;;
9940;SDS011;5009;50.656;7.188;2023-01-28T12:56:04;6.17;;;5.57;;
9940;SDS011;5009;50.656;7.188;2023-01-28T13:01:15;5.73;;;5.13;;
9940;SDS011;5009;50.656;7.188;2023-01-28T13:03:48;6.47;;;5.87;;
9940;SDS011;5009;50.656;7.188;2023-01-28T13:06:30;6.33;;;5.73;;
9940;SDS011;5009;50.656;7.188;2023-01-28T13:09:02;5.70;;;5.20;;
9940;SDS011;5009;50.656;7.188;2023-01-28T13:11:45;7.70;;;6.83;;
9940;SDS011;5009;50.656;7.188;2023-01-28T13:14:13;10.90;;;6.93;;
9940;SDS011;5009;50.656;7.188;2023-01-28T13:16:40;8.10;;;6.33;;
9940;SDS011;5009;50.656;7.188;2023-01-28T13:19:06;7.07;;;6.37;;
9940;SDS011;5009;50.656;7.188;2023-01-28T13:21:45;6.00;;;5.40;;
9940;SDS011;5009;50.656;7.188;2023-01-28T13:29:17;6.27;;;5.67;;
9940;SDS011;5009;50.656;7.188;2023-01-28T13:31:44;6.77;;;6.17;;
9940;SDS011;5009;50.656;7.188;2023-01-28T13:36:59;7.63;;;6.87;;
9940;SDS011;5009;50.656;7.188;2023-01-28T13:39:45;8.27;;;7.47;;
9940;SDS011;5009;50.656;7.188;2023-01-28T13:42:26;6.90;;;6.20;;
9940;SDS011;5009;50.656;7.188;2023-01-28T13:44:53;7.33;;;6.73;;
9940;SDS011;5009;50.656;7.188;2023-01-28T13:52:27;6.57;;;5.97;;
9940;SDS011;5009;50.656;7.188;2023-01-28T13:55:00;6.27;;;5.63;;
9940;SDS011;5009;50.656;7.188;2023-01-28T14:19:28;6.00;;;5.33;;
9940;SDS011;5009;50.656;7.188;2023-01-28T14:21:58;7.73;;;5.77;;
9940;SDS011;5009;50.656;7.188;2023-01-28T14:24:30;6.27;;;5.63;;
9940;SDS011;5009;50.656;7.188;2023-01-28T14:27:16;9.60;;;7.70;;
9940;SDS011;5009;50.656;7.188;2023-01-28T14:32:43;5.97;;;5.37;;
9940;SDS011;5009;50.656;7.188;2023-01-28T14:35:15;6.03;;;5.50;;
9940;SDS011;5009;50.656;7.188;2023-01-28T14:37:48;6.03;;;5.53;;
9940;SDS011;5009;50.656;7.188;2023-01-28T14:40:15;5.90;;;5.40;;
9940;SDS011;5009;50.656;7.188;2023-01-28T14:42:42;6.50;;;5.90;;
9940;SDS011;5009;50.656;7.188;2023-01-28T14:51:43;6.43;;;5.93;;
9940;SDS011;5009;50.656;7.188;2023-01-28T14:59:48;7.13;;;6.43;;
9940;SDS011;5009;50.656;7.188;2023-01-28T15:02:21;7.97;;;6.53;;
9940;SDS011;5009;50.656;7.188;2023-01-28T15:04:51;6.67;;;5.97;;
9940;SDS011;5009;50.656;7.188;2023-01-28T15:07:18;6.67;;;6.17;;
9940;SDS011;5009;50.656;7.188;2023-01-28T15:09:58;7.20;;;6.50;;
9940;SDS011;5009;50.656;7.188;2023-01-28T15:12:24;7.10;;;6.50;;
9940;SDS011;5009;50.656;7.188;2023-01-28T15:14:50;7.30;;;6.60;;
9940;SDS011;5009;50.656;7.188;2023-01-28T15:17:25;9.67;;;6.23;;
9940;SDS011;5009;50.656;7.188;2023-01-28T15:19:53;6.87;;;6.17;;
9940;SDS011;5009;50.656;7.188;2023-01-28T15:22:22;9.93;;;6.17;;
9940;SDS011;5009;50.656;7.188;2023-01-28T15:24:51;7.37;;;6.77;;
9940;SDS011;5009;50.656;7.188;2023-01-28T15:27:17;8.37;;;6.80;;
9940;SDS011;5009;50.656;7.188;2023-01-28T15:29:57;7.03;;;6.00;;
9940;SDS011;5009;50.656;7.188;2023-01-28T15:32:25;6.90;;;6.03;;
9940;SDS011;5009;50.656;7.188;2023-01-28T15:34:52;7.07;;;5.70;;
9940;SDS011;5009;50.656;7.188;2023-01-28T15:37:18;7.13;;;6.33;;
9940;SDS011;5009;50.656;7.188;2023-01-28T15:39:45;8.33;;;7.53;;
9940;SDS011;5009;50.656;7.188;2023-01-28T15:42:16;7.00;;;6.30;;
9940;SDS011;5009;50.656;7.188;2023-01-28T15:44:46;7.80;;;7.10;;
9940;SDS011;5009;50.656;7.188;2023-01-28T15:50:13;6.33;;;5.80;;
9940;SDS011;5009;50.656;7.188;2023-01-28T15:52:43;6.90;;;6.20;;
9940;SDS011;5009;50.656;7.188;2023-01-28T15:57:51;6.60;;;6.00;;
9940;SDS011;5009;50.656;7.188;2023-01-28T16:00:20;6.43;;;5.83;;
9940;SDS011;5009;50.656;7.188;2023-01-28T16:02:50;10.37;;;7.80;;
9940;SDS011;5009;50.656;7.188;2023-01-28T16:05:23;9.17;;;7.93;;
9940;SDS011;5009;50.656;7.188;2023-01-28T16:07:55;7.97;;;6.87;;
9940;SDS011;5009;50.656;7.188;2023-01-28T16:10:24;7.40;;;6.70;;
9940;SDS011;5009;50.656;7.188;2023-01-28T16:12:52;7.07;;;6.30;;
9940;SDS011;5009;50.656;7.188;2023-01-28T16:15:21;8.37;;;6.80;;
9940;SDS011;5009;50.656;7.188;2023-01-28T16:17:47;7.47;;;6.73;;
9940;SDS011;5009;50.656;7.188;2023-01-28T16:20:22;7.20;;;6.53;;
9940;SDS011;5009;50.656;7.188;2023-01-28T16:22:54;7.80;;;7.00;;
9940;SDS011;5009;50.656;7.188;2023-01-28T16:27:48;8.40;;;7.53;;
9940;SDS011;5009;50.656;7.188;2023-01-28T16:30:14;8.03;;;7.33;;
9940;SDS011;5009;50.656;7.188;2023-01-28T16:32:40;8.53;;;7.73;;
9940;SDS011;5009;50.656;7.188;2023-01-28T16:35:12;8.20;;;7.50;;
9940;SDS011;5009;50.656;7.188;2023-01-28T16:37:38;8.57;;;7.10;;
9940;SDS011;5009;50.656;7.188;2023-01-28T16:40:04;8.00;;;7.20;;
9940;SDS011;5009;50.656;7.188;2023-01-28T16:42:30;10.63;;;8.63;;
9940;SDS011;5009;50.656;7.188;2023-01-28T16:44:56;10.17;;;8.50;;
9940;SDS011;5009;50.656;7.188;2023-01-28T16:47:22;11.63;;;10.13;;
9940;SDS011;5009;50.656;7.188;2023-01-28T16:49:48;11.50;;;10.40;;
9940;SDS011;5009;50.656;7.188;2023-01-28T16:52:14;12.30;;;11.00;;
9940;SDS011;5009;50.656;7.188;2023-01-28T16:54:41;11.97;;;10.70;;
9940;SDS011;5009;50.656;7.188;2023-01-28T16:57:09;10.13;;;9.03;;
9940;SDS011;5009;50.656;7.188;2023-01-28T16:59:39;9.13;;;8.23;;
9940;SDS011;5009;50.656;7.188;2023-01-28T17:02:05;9.87;;;8.70;;
9940;SDS011;5009;50.656;7.188;2023-01-28T17:04:30;11.50;;;9.30;;
9940;SDS011;5009;50.656;7.188;2023-01-28T17:06:56;10.73;;;9.70;;
9940;SDS011;5009;50.656;7.188;2023-01-28T17:09:21;12.03;;;9.67;;
9940;SDS011;5009;50.656;7.188;2023-01-28T17:11:48;10.70;;;9.63;;
9940;SDS011;5009;50.656;7.188;2023-01-28T17:14:13;10.07;;;9.07;;
9940;SDS011;5009;50.656;7.188;2023-01-28T17:16:39;12.63;;;10.93;;
9940;SDS011;5009;50.656;7.188;2023-01-28T17:19:04;12.37;;;11.00;;
9940;SDS011;5009;50.656;7.188;2023-01-28T17:21:30;12.40;;;11.10;;
9940;SDS011;5009;50.656;7.188;2023-01-28T17:23:56;11.77;;;10.60;;
9940;SDS011;5009;50.656;7.188;2023-01-28T17:26:21;15.20;;;11.30;;
9940;SDS011;5009;50.656;7.188;2023-01-28T17:28:50;16.00;;;14.03;;
9940;SDS011;5009;50.656;7.188;2023-01-28T17:31:17;13.77;;;11.80;;
9940;SDS011;5009;50.656;7.188;2023-01-28T17:33:43;13.20;;;11.90;;
9940;SDS011;5009;50.656;7.188;2023-01-28T17:36:08;12.03;;;10.80;;
9940;SDS011;5009;50.656;7.188;2023-01-28T17:38:34;12.73;;;11.37;;
9940;SDS011;5009;50.656;7.188;2023-01-28T17:41:01;14.73;;;12.10;;
9940;SDS011;5009;50.656;7.188;2023-01-28T17:43:28;16.17;;;12.87;;
9940;SDS011;5009;50.656;7.188;2023-01-28T17:45:53;14.83;;;12.60;;
9940;SDS011;5009;50.656;7.188;2023-01-28T17:48:19;14.03;;;12.47;;
9940;SDS011;5009;50.656;7.188;2023-01-28T17:50:45;14.97;;;12.30;;
9940;SDS011;5009;50.656;7.188;2023-01-28T17:53:10;14.30;;;12.70;;
9940;SDS011;5009;50.656;7.188;2023-01-28T17:55:36;15.43;;;13.73;;
9940;SDS011;5009;50.656;7.188;2023-01-28T17:58:02;15.30;;;11.90;;
9940;SDS011;5009;50.656;7.188;2023-01-28T18:00:28;14.37;;;12.83;;
9940;SDS011;5009;50.656;7.188;2023-01-28T18:02:54;14.17;;;12.17;;
9940;SDS011;5009;50.656;7.188;2023-01-28T18:05:19;13.97;;;11.90;;
9940;SDS011;5009;50.656;7.188;2023-01-28T18:07:45;13.37;;;11.97;;
9940;SDS011;5009;50.656;7.188;2023-01-28T18:10:12;12.97;;;11.57;;
9940;SDS011;5009;50.656;7.188;2023-01-28T18:12:44;14.37;;;12.27;;
9940;SDS011;5009;50.656;7.188;2023-01-28T18:15:10;14.03;;;11.00;;
9940;SDS011;5009;50.656;7.188;2023-01-28T18:17:35;13.27;;;11.73;;
9940;SDS011;5009;50.656;7.188;2023-01-28T18:20:02;14.50;;;12.23;;
9940;SDS011;5009;50.656;7.188;2023-01-28T18:22:28;14.17;;;12.10;;
9940;SDS011;5009;50.656;7.188;2023-01-28T18:24:54;12.00;;;10.80;;
9940;SDS011;5009;50.656;7.188;2023-01-28T18:27:19;12.23;;;10.93;;
9940;SDS011;5009;50.656;7.188;2023-01-28T18:29:47;13.20;;;11.30;;
9940;SDS011;5009;50.656;7.188;2023-01-28T18:32:12;13.27;;;11.83;;
9940;SDS011;5009;50.656;7.188;2023-01-28T18:34:38;12.83;;;11.53;;
9940;SDS011;5009;50.656;7.188;2023-01-28T18:37:04;13.63;;;12.13;;
9940;SDS011;5009;50.656;7.188;2023-01-28T18:39:31;15.67;;;12.53;;
9940;SDS011;5009;50.656;7.188;2023-01-28T18:41:57;14.03;;;12.43;;
9940;SDS011;5009;50.656;7.188;2023-01-28T18:44:24;12.70;;;11.30;;
9940;SDS011;5009;50.656;7.188;2023-01-28T18:46:51;16.77;;;11.73;;
9940;SDS011;5009;50.656;7.188;2023-01-28T18:49:17;12.73;;;11.30;;
9940;SDS011;5009;50.656;7.188;2023-01-28T18:51:43;11.90;;;10.63;;
9940;SDS011;5009;50.656;7.188;2023-01-28T18:54:10;14.20;;;11.27;;
9940;SDS011;5009;50.656;7.188;2023-01-28T18:56:37;14.77;;;12.03;;
9940;SDS011;5009;50.656;7.188;2023-01-28T18:59:04;14.37;;;11.17;;
9940;SDS011;5009;50.656;7.188;2023-01-28T19:01:31;12.13;;;10.80;;
9940;SDS011;5009;50.656;7.188;2023-01-28T19:03:58;12.00;;;10.70;;
9940;SDS011;5009;50.656;7.188;2023-01-28T19:06:26;12.33;;;10.43;;
9940;SDS011;5009;50.656;7.188;2023-01-28T19:08:53;12.37;;;10.57;;
9940;SDS011;5009;50.656;7.188;2023-01-28T19:11:20;12.50;;;10.93;;
9940;SDS011;5009;50.656;7.188;2023-01-28T19:13:47;12.70;;;10.93;;
9940;SDS011;5009;50.656;7.188;2023-01-28T19:16:13;12.17;;;10.87;;
9940;SDS011;5009;50.656;7.188;2023-01-28T19:18:38;12.23;;;10.93;;
9940;SDS011;5009;50.656;7.188;2023-01-28T19:21:05;12.40;;;11.13;;
9940;SDS011;5009;50.656;7.188;2023-01-28T19:23:31;11.97;;;10.80;;
9940;SDS011;5009;50.656;7.188;2023-01-28T19:26:00;13.43;;;10.77;;
9940;SDS011;5009;50.656;7.188;2023-01-28T19:28:29;12.80;;;11.37;;
9940;SDS011;5009;50.656;7.188;2023-01-28T19:31:42;14.43;;;11.87;;
9940;SDS011;5009;50.656;7.188;2023-01-28T19:34:08;12.70;;;11.40;;
9940;SDS011;5009;50.656;7.188;2023-01-28T19:36:34;13.03;;;11.67;;
9940;SDS011;5009;50.656;7.188;2023-01-28T19:39:05;13.77;;;12.37;;
9940;SDS011;5009;50.656;7.188;2023-01-28T19:41:31;12.93;;;11.50;;
9940;SDS011;5009;50.656;7.188;2023-01-28T19:43:57;15.27;;;12.83;;
9940;SDS011;5009;50.656;7.188;2023-01-28T19:46:23;13.43;;;12.03;;
9940;SDS011;5009;50.656;7.188;2023-01-28T19:48:49;13.93;;;12.40;;
9940;SDS011;5009;50.656;7.188;2023-01-28T19:51:15;14.63;;;13.13;;
9940;SDS011;5009;50.656;7.188;2023-01-28T19:53:41;14.10;;;12.60;;
9940;SDS011;5009;50.656;7.188;2023-01-28T19:56:09;15.30;;;12.67;;
9940;SDS011;5009;50.656;7.188;2023-01-28T19:58:37;16.37;;;12.73;;
9940;SDS011;5009;50.656;7.188;2023-01-28T20:01:05;14.97;;;13.47;;
9940;SDS011;5009;50.656;7.188;2023-01-28T20:03:33;15.73;;;13.97;;
9940;SDS011;5009;50.656;7.188;2023-01-28T20:06:02;15.47;;;13.77;;
9940;SDS011;5009;50.656;7.188;2023-01-28T20:08:30;18.43;;;14.93;;
9940;SDS011;5009;50.656;7.188;2023-01-28T20:11:07;16.53;;;14.83;;
9940;SDS011;5009;50.656;7.188;2023-01-28T20:13:36;18.40;;;15.03;;
9940;SDS011;5009;50.656;7.188;2023-01-28T20:16:06;15.90;;;14.27;;
9940;SDS011;5009;50.656;7.188;2023-01-28T20:18:33;17.10;;;14.90;;
9940;SDS011;5009;50.656;7.188;2023-01-28T20:20:59;17.57;;;15.57;;
9940;SDS011;5009;50.656;7.188;2023-01-28T20:23:25;19.57;;;15.37;;
9940;SDS011;5009;50.656;7.188;2023-01-28T20:25:51;17.23;;;14.83;;
9940;SDS011;5009;50.656;7.188;2023-01-28T20:28:27;19.07;;;15.90;;
9940;SDS011;5009;50.656;7.188;2023-01-28T20:30:53;17.83;;;15.73;;
9940;SDS011;5009;50.656;7.188;2023-01-28T20:33:19;17.70;;;15.80;;
9940;SDS011;5009;50.656;7.188;2023-01-28T20:35:45;17.77;;;15.77;;
9940;SDS011;5009;50.656;7.188;2023-01-28T20:38:11;17.87;;;15.97;;
9940;SDS011;5009;50.656;7.188;2023-01-28T20:40:37;18.57;;;15.03;;
9940;SDS011;5009;50.656;7.188;2023-01-28T20:43:10;18.47;;;15.63;;
9940;SDS011;5009;50.656;7.188;2023-01-28T20:45:35;18.73;;;16.40;;
9940;SDS011;5009;50.656;7.188;2023-01-28T20:48:01;20.10;;;17.73;;
9940;SDS011;5009;50.656;7.188;2023-01-28T20:50:27;19.50;;;17.00;;
9940;SDS011;5009;50.656;7.188;2023-01-28T20:52:53;22.90;;;17.33;;
9940;SDS011;5009;50.656;7.188;2023-01-28T20:55:18;19.73;;;17.03;;
9940;SDS011;5009;50.656;7.188;2023-01-28T20:57:44;20.73;;;17.37;;
9940;SDS011;5009;50.656;7.188;2023-01-28T21:00:10;20.67;;;17.07;;
9940;SDS011;5009;50.656;7.188;2023-01-28T21:02:39;21.80;;;17.63;;
9940;SDS011;5009;50.656;7.188;2023-01-28T21:05:07;21.80;;;18.17;;
9940;SDS011;5009;50.656;7.188;2023-01-28T21:07:33;21.47;;;19.13;;
9940;SDS011;5009;50.656;7.188;2023-01-28T21:09:58;21.47;;;17.70;;
9940;SDS011;5009;50.656;7.188;2023-01-28T21:12:44;19.80;;;17.70;;
9940;SDS011;5009;50.656;7.188;2023-01-28T21:15:10;20.73;;;18.53;;
9940;SDS011;5009;50.656;7.188;2023-01-28T21:17:36;23.07;;;18.43;;
9940;SDS011;5009;50.656;7.188;2023-01-28T21:20:01;21.00;;;18.70;;
9940;SDS011;5009;50.656;7.188;2023-01-28T21:22:49;22.57;;;18.70;;
9940;SDS011;5009;50.656;7.188;2023-01-28T21:25:15;21.63;;;18.77;;
9940;SDS011;5009;50.656;7.188;2023-01-28T21:27:40;22.63;;;19.33;;
9940;SDS011;5009;50.656;7.188;2023-01-28T21:30:06;23.27;;;18.63;;
9940;SDS011;5009;50.656;7.188;2023-01-28T21:32:32;21.90;;;19.60;;
9940;SDS011;5009;50.656;7.188;2023-01-28T21:34:58;20.67;;;18.47;;
9940;SDS011;5009;50.656;7.188;2023-01-28T21:37:24;23.57;;;20.60;;
9940;SDS011;5009;50.656;7.188;2023-01-28T21:39:49;23.77;;;19.77;;
9940;SDS011;5009;50.656;7.188;2023-01-28T21:42:15;25.77;;;21.20;;
9940;SDS011;5009;50.656;7.188;2023-01-28T21:44:41;24.07;;;19.93;;
9940;SDS011;5009;50.656;7.188;2023-01-28T21:47:07;25.73;;;20.73;;
9940;SDS011;5009;50.656;7.188;2023-01-28T21:49:33;23.63;;;20.70;;
9940;SDS011;5009;50.656;7.188;2023-01-28T21:51:58;24.93;;;21.40;;
9940;SDS011;5009;50.656;7.188;2023-01-28T21:54:24;25.57;;;22.37;;
9940;SDS011;5009;50.656;7.188;2023-01-28T21:56:50;26.30;;;22.40;;
9940;SDS011;5009;50.656;7.188;2023-01-28T21:59:16;25.50;;;22.27;;
